Terminal Aerodrome Forecast
Issued by NWS Shreveport, LA

Home | Current Version | Previous Version | Text Only | Print | Product List | Glossary On
Versions: 1 2 3 4 5 6 7 8 9 10 11 12 13 14 15 16
000
FTUS44 KSHV 201100
TAFLFK
TAF
KLFK 201120Z 2012/2112 01003KT 6SM BR OVC006
      TEMPO 2012/2013 4SM BR
     FM201600 05005KT 6SM BR OVC007
     FM201900 05006KT P6SM SCT009 OVC013
     FM202100 05005KT P6SM BKN020
     FM210000 04003KT P6SM BKN025
     FM210400 07003KT P6SM OVC015
     FM210800 07003KT 4SM BR OVC007=

USA.gov is the U.S. government's official web portal to all federal, state and local government web resources and services.